Time;durP1;ratioP1;P1;durP2;ratioP2;P2;SDS_P1;SDS_P2;PMS_P1;PMS_P2;Temp;Humidity;BMP_temperature;BMP_pressure;BME280_temperature;BME280_humidity;BME280_pressure;Samples;Min_cycle;Max_cycle;Signal;HPM_P1;HPM_P2
2021/12/06 00:01:14;;;;;;;28.23;25.15;;;;;;;4.68;76.14;93952.47;5095536;28;20181;-69
2021/12/06 00:03:49;;;;;;;26.33;23.63;;;;;;;4.68;76.02;93944.28;5095358;28;20187;-69
2021/12/06 00:06:17;;;;;;;26.95;24.08;;;;;;;4.70;76.44;93944.75;5094726;28;20195;-70
2021/12/06 00:08:44;;;;;;;25.55;22.85;;;;;;;4.71;76.23;93940.88;5095332;28;20601;-70
2021/12/06 00:11:11;;;;;;;25.77;23.08;;;;;;;4.69;76.38;93933.03;5095568;28;20239;-69
2021/12/06 00:13:42;;;;;;;25.83;23.08;;;;;;;4.69;76.55;93927.56;5095448;28;20227;-69
2021/12/06 00:16:15;;;;;;;24.92;22.27;;;;;;;4.69;76.64;93934.97;5095312;28;20188;-69
2021/12/06 00:18:43;;;;;;;24.67;22.15;;;;;;;4.71;76.53;93938.16;5095304;28;20204;-69
2021/12/06 00:21:11;;;;;;;24.98;22.30;;;;;;;4.70;76.44;93931.09;5094051;28;20541;-69
2021/12/06 00:23:39;;;;;;;24.80;22.30;;;;;;;4.66;76.42;93931.00;5095430;28;20199;-69
2021/12/06 00:26:06;;;;;;;24.45;21.85;;;;;;;4.63;76.62;93956.25;5094674;28;20196;-69
2021/12/06 00:28:33;;;;;;;25.27;22.58;;;;;;;4.61;76.48;93958.50;5094937;28;20181;-69
2021/12/06 00:31:03;;;;;;;25.60;23.00;;;;;;;4.62;76.60;93981.97;5094267;28;20514;-70
2021/12/06 00:33:30;;;;;;;24.95;22.30;;;;;;;4.63;76.75;93983.56;5095250;28;20181;-70
2021/12/06 00:36:03;;;;;;;24.73;22.00;;;;;;;4.63;76.38;93980.03;5094205;28;20192;-70
2021/12/06 00:38:29;;;;;;;26.27;23.48;;;;;;;4.60;76.36;93967.84;5095328;28;20232;-70
2021/12/06 00:40:56;;;;;;;25.17;22.67;;;;;;;4.60;76.48;93965.13;5093862;28;20196;-70
2021/12/06 00:43:23;;;;;;;26.17;23.38;;;;;;;4.59;76.35;93967.06;5095058;28;20185;-70
2021/12/06 00:45:50;;;;;;;24.83;22.35;;;;;;;4.61;76.43;93968.66;5094195;28;20192;-70
2021/12/06 00:48:18;;;;;;;24.08;21.58;;;;;;;4.59;76.64;93972.53;5097126;28;20191;-70
2021/12/06 00:50:45;;;;;;;24.88;22.27;;;;;;;4.62;76.86;93978.44;5098244;28;20196;-70
2021/12/06 00:53:13;;;;;;;25.85;23.15;;;;;;;4.65;76.36;93992.22;5099005;28;20285;-70
2021/12/06 00:55:40;;;;;;;24.13;21.60;;;;;;;4.63;76.32;93971.84;5098762;28;20185;-70
2021/12/06 00:58:07;;;;;;;24.83;21.90;;;;;;;4.63;76.86;93960.91;5098929;28;20214;-70
2021/12/06 01:00:37;;;;;;;23.25;20.83;;;;;;;4.64;76.78;93951.59;5098085;28;20197;-70
2021/12/06 01:03:06;;;;;;;24.35;21.88;;;;;;;4.66;76.19;93952.03;5098515;28;20191;-70
2021/12/06 01:05:35;;;;;;;24.85;22.20;;;;;;;4.56;76.08;93956.81;5098521;28;20191;-69
2021/12/06 01:08:02;;;;;;;24.08;21.58;;;;;;;4.51;76.33;93953.53;5098273;28;20189;-69
2021/12/06 01:10:29;;;;;;;23.95;21.45;;;;;;;4.50;76.41;93966.41;5097638;28;20247;-69
2021/12/06 01:12:58;;;;;;;23.80;21.38;;;;;;;4.50;76.31;93968.31;5097716;28;20199;-69
2021/12/06 01:15:25;;;;;;;24.17;21.55;;;;;;;4.49;76.59;93951.13;5098567;28;20208;-70
2021/12/06 01:17:52;;;;;;;23.50;21.10;;;;;;;4.50;77.10;93952.75;5097862;28;20223;-70
2021/12/06 01:20:23;;;;;;;23.27;20.77;;;;;;;4.52;76.67;93964.09;5098280;28;20184;-69
2021/12/06 01:22:55;;;;;;;23.77;21.27;;;;;;;4.56;76.98;93956.03;5097147;28;20291;-67
2021/12/06 01:25:31;;;;;;;22.60;18.95;;;;;;;4.58;77.05;93959.22;5098398;28;20230;-69
2021/12/06 01:30:53;;;;;;;21.55;19.25;;;;;;;4.63;76.80;93945.31;5096099;28;20222;-69
2021/12/06 01:34:02;;;;;;;23.42;18.70;;;;;;;4.65;76.93;93948.53;5098257;28;20196;-69
2021/12/06 01:39:17;;;;;;;22.38;18.13;;;;;;;4.66;76.61;93941.13;5097681;28;20291;-70
2021/12/06 01:41:49;;;;;;;20.88;17.75;;;;;;;4.65;76.94;93934.03;5097806;28;20528;-70
2021/12/06 01:44:18;;;;;;;21.10;18.23;;;;;;;4.64;76.81;93935.97;5096937;28;20192;-70
2021/12/06 01:46:49;;;;;;;23.38;19.60;;;;;;;4.64;76.53;93938.72;5097887;28;20184;-70
2021/12/06 01:49:17;;;;;;;20.42;18.05;;;;;;;4.64;76.96;93933.25;5097014;28;20613;-69
2021/12/06 01:51:45;;;;;;;21.00;18.80;;;;;;;4.64;76.86;93922.31;5097485;28;20204;-69
2021/12/06 01:54:14;;;;;;;20.75;17.90;;;;;;;4.58;76.14;93910.84;5097815;28;20207;-70
2021/12/06 01:56:41;;;;;;;19.77;17.67;;;;;;;4.55;76.75;93917.00;5097741;28;20191;-69
2021/12/06 01:59:08;;;;;;;21.02;18.13;;;;;;;4.54;77.10;93900.97;5096102;28;20223;-69
2021/12/06 02:01:35;;;;;;;21.38;18.58;;;;;;;4.52;76.44;93904.03;5097726;28;20189;-69
2021/12/06 02:04:03;;;;;;;20.92;18.00;;;;;;;4.46;76.51;93891.75;5096828;28;20201;-69
2021/12/06 02:06:30;;;;;;;21.55;19.25;;;;;;;4.40;76.31;93911.44;5096676;28;20214;-70
2021/12/06 02:08:57;;;;;;;22.33;18.80;;;;;;;4.35;76.57;93883.22;5096576;28;20207;-70
2021/12/06 02:11:28;;;;;;;22.55;18.60;;;;;;;4.43;77.11;93910.72;5097625;28;20228;-70
2021/12/06 02:14:07;;;;;;;20.75;18.25;;;;;;;4.48;77.28;93894.13;5096290;28;20609;-70
2021/12/06 02:16:41;;;;;;;20.98;17.95;;;;;;;4.51;77.25;93913.38;5097236;28;20169;-70
2021/12/06 02:19:09;;;;;;;22.00;18.02;;;;;;;4.50;77.13;93911.78;5096340;28;20243;-70
2021/12/06 02:21:41;;;;;;;20.67;17.92;;;;;;;4.55;77.40;93918.94;5096807;28;20196;-70
2021/12/06 02:24:10;;;;;;;21.70;18.33;;;;;;;4.54;77.62;93920.88;5096996;28;20188;-70
2021/12/06 02:26:39;;;;;;;22.33;18.38;;;;;;;4.58;77.54;93923.72;5097261;28;20514;-70
2021/12/06 02:29:06;;;;;;;23.42;18.92;;;;;;;4.63;77.46;93919.94;5097094;28;20196;-70
2021/12/06 02:31:34;;;;;;;23.08;17.83;;;;;;;4.66;77.03;93908.34;5096658;28;20214;-70
2021/12/06 02:34:01;;;;;;;21.65;17.88;;;;;;;4.67;76.88;93907.19;5096818;28;20204;-70
2021/12/06 02:36:29;;;;;;;21.70;18.17;;;;;;;4.66;77.28;93905.63;5096006;28;20223;-70
2021/12/06 02:38:57;;;;;;;22.25;18.02;;;;;;;4.59;76.72;93906.19;5096586;28;20208;-69
2021/12/06 02:41:24;;;;;;;21.98;18.10;;;;;;;4.48;76.40;93902.34;5096133;28;20258;-70
2021/12/06 02:43:54;;;;;;;23.00;18.40;;;;;;;4.38;76.27;93892.66;5096914;28;20188;-70
2021/12/06 02:46:21;;;;;;;22.88;19.05;;;;;;;4.38;76.36;93902.78;5096998;28;20177;-70
2021/12/06 02:48:48;;;;;;;21.88;19.08;;;;;;;4.34;76.55;93892.53;5096814;28;20181;-70
2021/12/06 02:51:16;;;;;;;24.23;20.50;;;;;;;4.34;76.41;93886.28;5096751;28;20189;-69
2021/12/06 02:53:43;;;;;;;22.52;20.00;;;;;;;4.34;76.77;93902.69;5096736;28;20181;-70
2021/12/06 02:56:29;;;;;;;26.42;21.73;;;;;;;4.35;76.95;93902.31;5095736;28;20196;-70
2021/12/06 02:58:56;;;;;;;23.30;20.80;;;;;;;4.32;76.92;93908.50;5097136;28;20212;-69
2021/12/06 03:01:28;;;;;;;24.40;21.30;;;;;;;4.33;77.45;93901.88;5096560;28;20184;-69
2021/12/06 03:03:55;;;;;;;23.52;20.25;;;;;;;4.40;77.87;93895.06;5096171;28;20625;-69
2021/12/06 03:06:22;;;;;;;21.80;18.73;;;;;;;4.46;77.59;93885.47;5095714;28;20196;-70
2021/12/06 03:08:55;;;;;;;23.25;19.80;;;;;;;4.49;77.77;93890.25;5096411;28;20181;-69
2021/12/06 03:11:27;;;;;;;22.15;19.75;;;;;;;4.47;77.25;93898.81;5095588;28;20315;-69
2021/12/06 03:13:54;;;;;;;24.42;19.98;;;;;;;4.48;78.11;93899.59;5096357;28;20193;-69
2021/12/06 03:16:21;;;;;;;21.38;18.40;;;;;;;4.50;77.60;93903.59;5095535;28;20199;-69
2021/12/06 03:18:50;;;;;;;20.30;17.17;;;;;;;4.53;78.05;93902.88;5094873;28;20683;-69
2021/12/06 03:21:18;;;;;;;20.90;18.15;;;;;;;4.58;78.08;93889.00;5096194;28;20195;-69
2021/12/06 03:23:45;;;;;;;20.33;17.75;;;;;;;4.60;77.70;93896.84;5095798;28;20605;-70
2021/12/06 03:26:12;;;;;;;21.33;18.10;;;;;;;4.61;77.86;93894.91;5095345;28;20203;-70
2021/12/06 03:28:42;;;;;;;21.02;17.70;;;;;;;4.59;77.38;93900.72;5095048;28;20185;-70
2021/12/06 03:31:09;;;;;;;20.55;17.67;;;;;;;4.59;77.31;93892.53;5096067;28;20185;-70
2021/12/06 03:33:36;;;;;;;19.38;17.30;;;;;;;4.60;77.52;93899.59;5095686;28;20206;-70
2021/12/06 03:36:04;;;;;;;19.13;17.00;;;;;;;4.59;77.79;93874.22;5095914;28;20188;-70
2021/12/06 03:38:31;;;;;;;20.48;17.95;;;;;;;4.60;77.69;93877.72;5094885;28;20211;-70
2021/12/06 03:40:58;;;;;;;21.70;17.75;;;;;;;4.61;78.20;93868.38;5095461;28;20185;-70
2021/12/06 03:43:25;;;;;;;21.65;18.38;;;;;;;4.61;77.85;93873.84;5096091;28;20196;-70
2021/12/06 03:45:53;;;;;;;20.65;17.85;;;;;;;4.62;77.76;93886.38;5095761;28;20184;-70
2021/12/06 03:48:20;;;;;;;19.40;17.35;;;;;;;4.60;78.38;93896.84;5095378;28;20173;-69
2021/12/06 03:50:47;;;;;;;21.17;18.08;;;;;;;4.63;78.69;93889.91;5094655;28;20204;-69
2021/12/06 03:53:14;;;;;;;20.80;17.88;;;;;;;4.65;78.11;93884.88;5095649;28;20188;-69
2021/12/06 03:55:41;;;;;;;21.63;17.77;;;;;;;4.68;78.70;93879.53;5094981;28;20553;-69
2021/12/06 03:58:08;;;;;;;21.92;18.60;;;;;;;4.66;78.42;93873.63;5095467;28;20200;-69
2021/12/06 04:00:34;;;;;;;22.70;18.60;;;;;;;4.65;78.39;93884.88;5095524;28;20195;-69
2021/12/06 04:03:03;;;;;;;20.65;17.83;;;;;;;4.62;78.08;93888.31;5094495;28;20218;-69
2021/12/06 04:05:30;;;;;;;21.92;18.48;;;;;;;4.59;78.30;93884.34;5095548;28;20192;-70
2021/12/06 04:07:57;;;;;;;20.73;17.65;;;;;;;4.58;77.94;93877.28;5095472;28;20188;-69
2021/12/06 04:10:26;;;;;;;23.73;18.85;;;;;;;4.55;78.34;93886.97;5094348;28;20339;-70
2021/12/06 04:12:55;;;;;;;21.50;18.33;;;;;;;4.56;78.39;93872.16;5094170;28;20283;-69
2021/12/06 04:15:22;;;;;;;18.95;16.77;;;;;;;4.58;78.19;93877.28;5094636;28;20196;-69
2021/12/06 04:17:49;;;;;;;21.58;19.15;;;;;;;4.57;78.09;93886.59;5094036;28;20188;-69
2021/12/06 04:20:18;;;;;;;21.85;18.73;;;;;;;4.54;78.12;93879.13;5094054;28;20605;-69
2021/12/06 04:22:45;;;;;;;22.58;18.85;;;;;;;4.52;78.35;93884.13;5094950;28;20219;-69
2021/12/06 04:25:14;;;;;;;21.58;19.20;;;;;;;4.52;78.60;93887.66;5094409;28;20192;-70
2021/12/06 04:27:43;;;;;;;19.80;17.45;;;;;;;4.53;78.63;93882.97;5094495;28;20246;-69
2021/12/06 04:30:11;;;;;;;20.88;18.33;;;;;;;4.52;78.97;93892.31;5094570;28;20207;-70
2021/12/06 04:32:38;;;;;;;19.90;17.63;;;;;;;4.56;79.19;93895.94;5095239;28;20198;-70
2021/12/06 04:35:07;;;;;;;20.23;17.85;;;;;;;4.62;79.50;93875.47;5094199;28;20204;-69
2021/12/06 04:37:35;;;;;;;20.15;17.30;;;;;;;4.66;79.10;93895.47;5094435;28;20199;-70
2021/12/06 04:40:03;;;;;;;23.38;19.08;;;;;;;4.70;79.23;93884.66;5094381;28;20219;-70
2021/12/06 04:42:30;;;;;;;27.08;21.05;;;;;;;4.71;79.52;93884.31;5094456;28;20206;-70
2021/12/06 04:44:57;;;;;;;29.02;22.70;;;;;;;4.75;79.31;93876.22;5093879;28;20202;-70
2021/12/06 04:47:24;;;;;;;28.55;22.45;;;;;;;4.79;79.68;93882.59;5095063;28;20208;-69
2021/12/06 04:49:51;;;;;;;23.25;19.05;;;;;;;4.79;79.21;93879.84;5094263;28;20193;-70
2021/12/06 04:52:19;;;;;;;23.35;18.90;;;;;;;4.76;78.94;93886.81;5094276;28;20201;-70
2021/12/06 04:54:50;;;;;;;20.77;18.08;;;;;;;4.80;78.97;93879.53;5094976;28;20192;-70
2021/12/06 04:57:23;;;;;;;19.73;16.80;;;;;;;4.85;78.93;93869.50;5094728;28;20195;-69
2021/12/06 04:59:54;;;;;;;20.45;17.77;;;;;;;4.85;79.19;93880.41;5094648;28;20212;-70
2021/12/06 05:02:24;;;;;;;21.60;19.38;;;;;;;4.88;78.77;93883.25;5094830;28;20593;-70
2021/12/06 05:04:54;;;;;;;21.27;18.98;;;;;;;4.92;79.06;93897.81;5093938;28;20211;-70
2021/12/06 05:07:24;;;;;;;20.80;18.58;;;;;;;4.93;78.89;93880.28;5094587;28;20200;-70
2021/12/06 05:09:53;;;;;;;20.52;18.42;;;;;;;4.92;78.76;93869.69;5093780;28;20236;-68
2021/12/06 05:12:23;;;;;;;21.73;19.63;;;;;;;4.93;78.70;93858.41;5094963;28;20203;-67
2021/12/06 05:14:49;;;;;;;23.95;21.65;;;;;;;4.97;78.78;93886.63;5092950;28;20427;-69
2021/12/06 05:17:16;;;;;;;22.73;20.42;;;;;;;4.91;78.78;93888.03;5093609;28;20196;-72
2021/12/06 05:19:43;;;;;;;22.77;20.48;;;;;;;4.88;79.00;93898.84;5094213;28;20247;-71
2021/12/06 05:22:10;;;;;;;23.13;20.90;;;;;;;4.85;79.64;93897.59;5094967;28;20185;-69
2021/12/06 05:24:38;;;;;;;22.58;20.35;;;;;;;4.84;79.10;93901.47;5093975;28;20200;-71
2021/12/06 05:27:06;;;;;;;23.00;20.85;;;;;;;4.83;79.46;93908.88;5094305;28;20601;-70
2021/12/06 05:29:34;;;;;;;24.25;21.85;;;;;;;4.83;79.33;93906.16;5094109;28;20193;-70
2021/12/06 05:32:01;;;;;;;22.27;20.17;;;;;;;4.82;79.21;93888.16;5094614;28;20202;-71
2021/12/06 05:34:34;;;;;;;24.30;22.07;;;;;;;4.85;79.29;93899.53;5093767;28;20434;-71
2021/12/06 05:37:02;;;;;;;25.35;23.05;;;;;;;4.87;79.23;93889.06;5096587;28;20440;-71
2021/12/06 05:39:30;;;;;;;21.98;19.88;;;;;;;4.93;79.20;93893.13;5098393;28;20227;-71
2021/12/06 05:41:57;;;;;;;21.85;19.63;;;;;;;4.97;79.15;93894.03;5097801;28;20190;-71
2021/12/06 05:44:25;;;;;;;22.80;20.60;;;;;;;5.01;78.69;93894.94;5098128;28;20195;-71
2021/12/06 05:46:52;;;;;;;21.00;18.90;;;;;;;5.02;79.10;93912.94;5096995;28;20211;-71
2021/12/06 05:49:19;;;;;;;21.05;19.02;;;;;;;5.04;78.87;93883.31;5098058;28;20183;-71
2021/12/06 05:51:46;;;;;;;21.75;19.65;;;;;;;5.05;79.06;93893.13;5097986;28;20192;-71
2021/12/06 05:54:13;;;;;;;21.13;19.08;;;;;;;5.05;78.60;93890.38;5096958;28;20203;-71
2021/12/06 05:56:39;;;;;;;24.05;21.73;;;;;;;4.98;78.99;93877.31;5096836;28;20206;-71
2021/12/06 05:59:06;;;;;;;26.08;23.48;;;;;;;4.93;78.70;93890.41;5097356;28;20223;-71
2021/12/06 06:01:34;;;;;;;27.67;24.85;;;;;;;4.92;79.33;93897.03;5097839;28;20192;-71
2021/12/06 06:04:02;;;;;;;22.67;20.38;;;;;;;4.98;79.69;93884.72;5096535;28;20193;-70
2021/12/06 06:06:29;;;;;;;21.90;19.80;;;;;;;5.08;79.05;93889.69;5096561;28;20211;-70
2021/12/06 06:08:56;;;;;;;22.65;20.55;;;;;;;5.12;78.95;93917.94;5097770;28;20184;-70
2021/12/06 06:11:23;;;;;;;22.63;20.42;;;;;;;5.11;79.30;93910.84;5096743;28;20239;-70
2021/12/06 06:13:50;;;;;;;24.05;21.75;;;;;;;5.09;79.03;93915.09;5097654;28;20195;-70
2021/12/06 06:16:20;;;;;;;24.00;21.60;;;;;;;5.11;79.20;93912.78;5097184;28;20180;-70
2021/12/06 06:18:50;;;;;;;24.85;22.45;;;;;;;5.16;79.44;93909.84;5100064;28;20284;-70
2021/12/06 06:21:17;;;;;;;25.48;22.95;;;;;;;5.24;79.44;93906.16;5097160;28;20200;-71
2021/12/06 06:23:44;;;;;;;25.30;22.80;;;;;;;5.29;79.80;93906.69;5097512;28;20185;-72
2021/12/06 06:26:10;;;;;;;24.95;22.40;;;;;;;5.38;80.12;93898.34;5096391;28;20200;-71
2021/12/06 06:28:37;;;;;;;24.83;22.40;;;;;;;5.46;79.61;93896.59;5096489;28;20197;-71
2021/12/06 06:31:04;;;;;;;25.63;22.98;;;;;;;5.57;79.71;93905.91;5097371;28;20192;-71
2021/12/06 06:33:31;;;;;;;22.65;20.33;;;;;;;5.67;80.12;93896.41;5096868;28;20581;-71
2021/12/06 06:35:59;;;;;;;22.67;20.48;;;;;;;5.79;80.24;93912.72;5097373;28;20176;-71
2021/12/06 06:38:26;;;;;;;25.67;23.08;;;;;;;5.90;79.40;93922.03;5096996;28;20192;-71
2021/12/06 06:40:54;;;;;;;25.08;22.63;;;;;;;5.94;79.08;93931.16;5096284;28;20188;-71
2021/12/06 06:43:21;;;;;;;31.92;28.60;;;;;;;5.96;79.02;93919.88;5096294;28;20196;-70
2021/12/06 06:45:48;;;;;;;29.15;26.15;;;;;;;5.98;79.38;93923.81;5097000;28;20180;-71
2021/12/06 06:48:15;;;;;;;24.67;22.17;;;;;;;6.05;79.10;93923.22;5097065;28;20192;-71
2021/12/06 06:50:42;;;;;;;19.45;17.52;;;;;;;6.08;79.02;93930.72;5097093;28;20234;-71
2021/12/06 06:53:11;;;;;;;18.80;16.90;;;;;;;6.15;79.24;93935.59;5096033;28;20196;-71
2021/12/06 06:55:37;;;;;;;18.70;16.88;;;;;;;6.24;79.06;93941.69;5096502;28;20189;-71
2021/12/06 06:58:04;;;;;;;17.05;15.45;;;;;;;6.31;78.87;93935.59;5095586;28;20430;-70
2021/12/06 07:00:34;;;;;;;15.23;13.90;;;;;;;6.40;78.74;93938.97;5096132;28;20235;-70
2021/12/06 07:03:01;;;;;;;14.43;13.13;;;;;;;6.46;78.78;93937.53;5097174;28;20188;-71
2021/12/06 07:05:28;;;;;;;14.63;13.43;;;;;;;6.50;78.75;93924.72;5096383;28;20207;-72
2021/12/06 07:07:55;;;;;;;15.60;14.10;;;;;;;6.55;78.30;93918.97;5096449;28;20207;-71
2021/12/06 07:10:24;;;;;;;15.95;14.43;;;;;;;6.57;77.50;93924.88;5095493;28;20232;-72
2021/12/06 07:12:52;;;;;;;15.02;13.63;;;;;;;6.65;77.41;93928.59;5096464;28;20533;-71
2021/12/06 07:15:20;;;;;;;14.55;13.13;;;;;;;6.75;77.28;93931.59;5096061;28;20203;-71
2021/12/06 07:17:48;;;;;;;12.85;11.65;;;;;;;6.81;76.83;93914.88;5095709;28;20200;-71
2021/12/06 07:20:15;;;;;;;11.63;10.52;;;;;;;6.59;76.58;93911.63;5095193;28;20212;-70
2021/12/06 07:22:43;;;;;;;12.27;11.18;;;;;;;6.55;76.72;93904.50;5095675;28;20192;-71
2021/12/06 07:25:10;;;;;;;12.25;11.15;;;;;;;6.51;77.36;93901.66;5096726;28;20176;-72
2021/12/06 07:27:39;;;;;;;10.98;9.95;;;;;;;6.64;77.32;93914.09;5096114;28;20177;-71
2021/12/06 07:30:06;;;;;;;10.93;9.93;;;;;;;6.68;75.83;93908.69;5095215;28;20207;-70
2021/12/06 07:32:33;;;;;;;11.27;10.27;;;;;;;6.72;75.99;93932.31;5095483;28;20212;-71
2021/12/06 07:35:00;;;;;;;11.52;10.43;;;;;;;6.77;75.98;93928.50;5095100;28;20200;-70
2021/12/06 07:37:27;;;;;;;11.48;10.27;;;;;;;6.78;75.64;93915.56;5095884;28;20191;-70
2021/12/06 07:39:54;;;;;;;12.35;11.25;;;;;;;6.82;76.06;93928.19;5094973;28;20433;-70
2021/12/06 07:42:21;;;;;;;11.38;10.38;;;;;;;6.85;75.59;93926.69;5095649;28;20180;-70
2021/12/06 07:44:50;;;;;;;11.77;10.52;;;;;;;6.90;75.94;93931.91;5096151;28;20279;-70
2021/12/06 07:47:17;;;;;;;12.38;11.18;;;;;;;6.92;75.79;93944.09;5095604;28;20221;-71
2021/12/06 07:49:45;;;;;;;11.60;10.50;;;;;;;6.94;76.09;93949.25;5095656;28;20196;-70
2021/12/06 07:52:12;;;;;;;11.45;10.35;;;;;;;6.91;76.02;93933.50;5096149;28;20208;-70
2021/12/06 07:54:40;;;;;;;11.50;10.50;;;;;;;6.89;76.29;93928.38;5096470;28;20184;-71
2021/12/06 07:57:08;;;;;;;11.50;10.50;;;;;;;6.90;75.91;93899.00;5094587;28;20250;-70
2021/12/06 07:59:36;;;;;;;10.13;9.25;;;;;;;6.84;76.20;93920.44;5095637;28;20232;-70
2021/12/06 08:02:06;;;;;;;11.07;10.07;;;;;;;6.87;76.41;93910.72;5095258;28;20207;-71
2021/12/06 08:04:33;;;;;;;10.98;9.98;;;;;;;6.92;76.86;93910.41;5095701;28;20180;-72
2021/12/06 08:07:00;;;;;;;10.95;9.95;;;;;;;6.97;77.15;93883.53;5095494;28;20188;-71
2021/12/06 08:09:27;;;;;;;10.07;9.18;;;;;;;6.98;76.54;93900.78;5094759;28;20214;-71
2021/12/06 08:11:54;;;;;;;9.68;8.88;;;;;;;6.98;76.94;93920.75;5095742;28;20192;-71
2021/12/06 08:14:21;;;;;;;17.80;16.17;;;;;;;6.99;76.91;93933.28;5095863;28;20184;-71
2021/12/06 08:16:48;;;;;;;13.27;12.05;;;;;;;6.99;76.76;93936.03;5095822;28;20199;-70
2021/12/06 08:19:17;;;;;;;12.77;11.57;;;;;;;6.98;76.84;93907.03;5094902;28;20200;-70
2021/12/06 08:21:43;;;;;;;11.93;10.77;;;;;;;6.83;76.95;93910.63;5094682;28;20288;-71
2021/12/06 08:24:10;;;;;;;11.70;10.60;;;;;;;6.83;77.54;93913.38;5094682;28;20203;-70
2021/12/06 08:26:41;;;;;;;11.77;10.57;;;;;;;6.80;77.86;93916.81;5095186;28;20196;-71
2021/12/06 08:29:12;;;;;;;11.20;10.00;;;;;;;6.85;77.79;93922.00;5094537;28;20200;-69
2021/12/06 08:31:41;;;;;;;12.60;10.75;;;;;;;6.93;78.39;93917.47;5095173;28;20469;-71
2021/12/06 08:34:08;;;;;;;10.52;9.52;;;;;;;6.97;78.16;93912.88;5095130;28;20184;-71
2021/12/06 08:36:36;;;;;;;9.57;8.68;;;;;;;7.08;77.72;93910.34;5094283;28;20200;-71
2021/12/06 08:39:04;;;;;;;11.25;10.25;;;;;;;7.27;78.19;93909.59;5095172;28;20195;-69
2021/12/06 08:41:31;;;;;;;9.95;9.02;;;;;;;7.32;77.16;93904.63;5095056;28;20223;-70
2021/12/06 08:44:01;;;;;;;12.32;11.05;;;;;;;7.41;77.44;93901.69;5095545;28;20188;-70
2021/12/06 08:46:31;;;;;;;11.02;9.93;;;;;;;7.43;76.91;93893.88;5094482;28;20193;-69
2021/12/06 08:49:00;;;;;;;9.95;8.95;;;;;;;7.38;76.37;93908.66;5095115;28;20205;-70
2021/12/06 08:51:29;;;;;;;9.48;8.57;;;;;;;7.34;76.55;93896.84;5094166;28;20287;-72
2021/12/06 08:54:00;;;;;;;10.45;9.40;;;;;;;7.23;76.02;93904.06;5095085;28;20196;-71
2021/12/06 08:56:27;;;;;;;9.73;8.73;;;;;;;7.31;76.40;93905.78;5095282;28;20310;-71
2021/12/06 08:58:54;;;;;;;10.55;9.63;;;;;;;7.39;75.98;93906.72;5095277;28;20294;-71
2021/12/06 09:01:22;;;;;;;10.43;9.52;;;;;;;7.46;76.00;93896.69;5094118;28;20216;-72
2021/12/06 09:03:49;;;;;;;9.70;8.80;;;;;;;7.50;75.99;93894.00;5095225;28;20198;-71
2021/12/06 09:06:16;;;;;;;9.82;8.93;;;;;;;7.51;75.07;93897.53;5094435;28;20540;-72
2021/12/06 09:08:43;;;;;;;8.85;8.05;;;;;;;7.46;74.35;93906.88;5094553;28;20206;-72
2021/12/06 09:11:12;;;;;;;8.80;8.00;;;;;;;7.49;75.52;93906.16;5098654;28;20270;-72
2021/12/06 09:13:40;;;;;;;9.60;8.70;;;;;;;7.52;75.11;93888.97;5098973;28;20195;-71
2021/12/06 09:16:08;;;;;;;9.07;8.18;;;;;;;7.58;74.71;93890.25;5099111;28;20185;-71
2021/12/06 09:18:38;;;;;;;8.63;7.82;;;;;;;7.67;75.09;93892.78;5098082;28;20539;-71
2021/12/06 09:21:06;;;;;;;7.85;7.10;;;;;;;7.68;74.05;93892.41;5097918;28;20223;-72
2021/12/06 09:23:33;;;;;;;8.15;7.35;;;;;;;7.72;74.09;93878.75;5099131;28;20177;-71
2021/12/06 09:26:00;;;;;;;7.65;6.95;;;;;;;7.74;74.16;93873.69;5098857;28;20181;-70
2021/12/06 09:28:28;;;;;;;9.13;7.90;;;;;;;7.83;74.13;93882.47;5098337;28;20200;-69
2021/12/06 09:30:55;;;;;;;7.90;7.20;;;;;;;7.85;72.89;93882.91;5097200;28;20434;-69
2021/12/06 09:33:24;;;;;;;8.38;7.63;;;;;;;7.87;73.16;93891.56;5098335;28;20589;-69
2021/12/06 09:35:52;;;;;;;8.90;8.10;;;;;;;7.90;72.64;93888.09;5097690;28;20261;-70
2021/12/06 09:38:22;;;;;;;9.07;8.27;;;;;;;7.90;72.89;93874.38;5097607;28;20200;-71
2021/12/06 09:40:51;;;;;;;8.48;7.72;;;;;;;7.89;72.66;93861.81;5097413;28;20230;-71
2021/12/06 09:43:19;;;;;;;8.45;7.68;;;;;;;7.96;72.99;93867.44;5098933;28;20521;-70
2021/12/06 09:45:47;;;;;;;9.65;8.80;;;;;;;7.99;72.91;93868.66;5097591;28;20200;-70
2021/12/06 09:48:16;;;;;;;10.63;9.63;;;;;;;8.00;72.30;93861.22;5097174;28;20208;-71
2021/12/06 09:50:45;;;;;;;9.05;8.25;;;;;;;8.01;72.46;93855.34;5097257;28;20200;-72
2021/12/06 09:53:15;;;;;;;8.52;7.70;;;;;;;8.02;72.29;93850.66;5097160;28;20532;-70
2021/12/06 09:55:43;;;;;;;9.02;8.13;;;;;;;8.05;72.47;93842.47;5097878;28;20191;-71
2021/12/06 09:58:10;;;;;;;9.45;8.48;;;;;;;8.11;72.01;93840.22;5097887;28;20208;-69
2021/12/06 10:00:41;;;;;;;9.38;8.57;;;;;;;8.14;71.99;93837.53;5096766;28;20445;-71
2021/12/06 10:03:10;;;;;;;8.30;7.50;;;;;;;8.17;72.16;93822.28;5097598;28;20222;-72
2021/12/06 10:05:37;;;;;;;13.38;12.07;;;;;;;8.24;71.91;93819.63;5097490;28;20208;-72
2021/12/06 10:08:05;;;;;;;9.63;8.70;;;;;;;8.34;71.01;93797.03;5097807;28;20185;-72
2021/12/06 10:10:32;;;;;;;8.38;7.43;;;;;;;8.37;70.59;93814.72;5097371;28;20242;-70
2021/12/06 10:13:00;;;;;;;8.10;7.40;;;;;;;8.37;70.29;93799.06;5097636;28;20200;-70
2021/12/06 10:15:29;;;;;;;7.20;6.50;;;;;;;8.41;70.14;93829.34;5097250;28;20177;-70
2021/12/06 10:17:57;;;;;;;7.05;6.45;;;;;;;8.41;70.16;93819.13;5096620;28;20200;-70
2021/12/06 10:20:27;;;;;;;6.50;5.90;;;;;;;8.43;70.84;93825.06;5096113;28;20217;-70
2021/12/06 10:22:54;;;;;;;6.70;6.10;;;;;;;8.44;69.96;93809.38;5096492;28;20202;-70
2021/12/06 10:25:22;;;;;;;7.05;6.40;;;;;;;8.48;70.00;93799.22;5097741;28;20292;-69
2021/12/06 10:27:54;;;;;;;8.40;7.65;;;;;;;8.56;70.30;93802.88;5097169;28;20189;-70
2021/12/06 10:30:23;;;;;;;10.25;9.25;;;;;;;8.61;70.55;93786.06;5096548;28;20200;-69
2021/12/06 10:32:50;;;;;;;9.63;8.63;;;;;;;8.61;70.13;93784.09;5096890;28;20189;-70
2021/12/06 10:35:18;;;;;;;9.35;8.48;;;;;;;8.56;70.10;93775.38;5096957;28;20204;-69
2021/12/06 10:37:47;;;;;;;8.45;7.65;;;;;;;8.53;69.62;93779.66;5096536;28;20188;-70
2021/12/06 10:40:18;;;;;;;8.43;7.70;;;;;;;8.58;69.49;93790.34;5095221;28;20216;-70
2021/12/06 10:42:47;;;;;;;8.27;7.47;;;;;;;8.60;68.48;93781.72;5096213;28;20196;-70
2021/12/06 10:45:17;;;;;;;7.40;6.80;;;;;;;8.61;69.03;93773.13;5096872;28;20188;-69
2021/12/06 10:47:45;;;;;;;8.05;7.35;;;;;;;8.63;69.58;93779.03;5096888;28;20200;-70
2021/12/06 10:50:15;;;;;;;8.15;7.45;;;;;;;8.71;70.17;93779.13;5096554;28;20212;-70
2021/12/06 10:52:51;;;;;;;9.88;8.98;;;;;;;8.76;69.76;93784.31;5096446;28;20206;-69
2021/12/06 10:55:20;;;;;;;10.57;9.57;;;;;;;8.78;69.68;93776.47;5095871;28;20191;-69
2021/12/06 10:57:51;;;;;;;12.13;10.93;;;;;;;8.76;69.49;93782.34;5096847;28;20234;-69
2021/12/06 11:00:38;;;;;;;16.50;14.82;;;;;;;8.78;70.15;93791.00;5096331;28;20215;-69
2021/12/06 11:03:05;;;;;;;17.60;15.90;;;;;;;8.76;70.41;93790.59;5095963;28;20203;-69
2021/12/06 11:05:35;;;;;;;16.80;15.30;;;;;;;8.77;69.88;93783.13;5096638;28;20195;-69
2021/12/06 11:08:15;;;;;;;16.67;15.13;;;;;;;8.82;70.27;93788.28;5096783;28;20180;-69
2021/12/06 11:10:45;;;;;;;15.02;13.57;;;;;;;8.84;70.30;93785.97;5095579;28;20232;-69
2021/12/06 11:13:18;;;;;;;11.73;10.63;;;;;;;8.86;70.46;93789.13;5095608;28;20204;-69
2021/12/06 11:15:53;;;;;;;10.85;9.85;;;;;;;8.88;70.61;93798.59;5096075;28;20180;-69
2021/12/06 11:18:30;;;;;;;10.32;9.32;;;;;;;8.89;69.85;93789.19;5095786;28;20235;-69
2021/12/06 11:20:58;;;;;;;10.45;9.50;;;;;;;8.90;70.18;93785.28;5096136;28;20227;-69
2021/12/06 11:23:27;;;;;;;10.23;9.32;;;;;;;8.89;70.11;93789.19;5096128;28;20231;-69
2021/12/06 11:25:59;;;;;;;10.63;9.63;;;;;;;8.90;69.56;93773.50;5096428;28;20177;-69
2021/12/06 11:28:27;;;;;;;11.45;10.05;;;;;;;8.91;69.95;93777.81;5094972;28;20204;-69
2021/12/06 11:30:59;;;;;;;11.30;10.18;;;;;;;8.95;69.99;93786.91;5095096;28;20204;-70
2021/12/06 11:33:31;;;;;;;11.10;10.05;;;;;;;8.95;70.00;93772.38;5094649;28;20215;-70
2021/12/06 11:35:58;;;;;;;11.93;10.73;;;;;;;8.95;69.56;93769.63;5095306;28;20219;-69
2021/12/06 11:38:29;;;;;;;10.52;9.52;;;;;;;8.95;69.65;93759.41;5096260;28;20180;-69
2021/12/06 11:40:57;;;;;;;10.98;9.98;;;;;;;8.98;69.49;93766.13;5095019;28;20234;-69